This is the latest recevied weather packets stored in our database for station/object GW1597. If no packets are shown the sender has not sent any weather packets the latest 10 day(s).
| Time | Temp. | Humidity | Pressure | Rain* | Wind** | Luminosity | Snow |
|---|---|---|---|---|---|---|---|
| 1777161617 | 18.33° C | 89% | 983.7 hPa | 0.51 mm | - | - | - |
| 1777160547 | 19.44° C | 86% | 983.7 hPa | 0.51 mm | - | - | - |
| 1777160189 | 19.44° C | 85% | 983.4 hPa | 0.51 mm | - | - | - |
| 1777158743 | 21.11° C | 79% | 983 hPa | 0.51 mm | - | - | - |
| 1777157679 | 21.67° C | 77% | 983.4 hPa | 0.51 mm | - | - | - |
| 1777150815 | 22.22° C | 72% | 983 hPa | 0.51 mm | - | - | - |
| 1777149388 | 22.22° C | 75% | 983.4 hPa | 0.51 mm | - | - | - |
| 1777149020 | 22.22° C | 76% | 983.4 hPa | 0.51 mm | - | - | - |
| 1777148655 | 22.22° C | 74% | 983.4 hPa | 0.51 mm | - | - | - |
| 1777147975 | 21.67° C | 77% | 983.4 hPa | 0.51 mm | - | - | - |
| 1777147250 | 21.67° C | 76% | 983.7 hPa | 0.51 mm | - | - | - |
| 1777145776 | 21.11° C | 81% | 984 hPa | 0.51 mm | - | - | - |
| 1777143993 | 20.56° C | 82% | 984.4 hPa | 0.51 mm | - | - | - |
| 1777143284 | 20.56° C | 83% | 984.4 hPa | 0.51 mm | - | - | - |
| 1777142900 | 20° C | 83% | 984.4 hPa | 0.51 mm | - | - | - |
| 1777140042 | 19.44° C | 88% | 984.4 hPa | 0.51 mm | - | - | - |
| 1777138610 | 18.89° C | 86% | 984.4 hPa | 0.51 mm | - | - | - |
| 1777132457 | 17.78° C | 87% | 984.7 hPa | 0.51 mm | - | - | - |
| 1777132131 | 17.22° C | 87% | 985.1 hPa | 0.51 mm | - | - | - |
| 1777131375 | 17.22° C | 88% | 985.1 hPa | 0.51 mm | - | - | - |
| 1777129214 | 16.11° C | 90% | 985.1 hPa | 0.51 mm | - | - | - |
| 1777128501 | 15.56° C | 91% | 984.7 hPa | 0.51 mm | - | - | - |
| 1777127450 | 14.44° C | 92% | 984.7 hPa | 0.51 mm | - | - | - |
| 1777123843 | 14.44° C | 92% | 984.7 hPa | 0 mm | - | - | - |
| 1777123476 | 13.89° C | 92% | 984.7 hPa | 0 mm | - | - | - |
* Rain since midnight (hover to see other rain measurements)
** Current wind speed in m/s (hover to see current wind gust speed)